Home > Products > Valid Products > MTR

000
SAUS45 KPUB 181557
MTRSPD
METAR KSPD 181556Z AUTO 31011KT 10/02 A2990 RMK AO1 SLP101 T01000017





000
SAUS45 KPUB 181457
MTRSPD
METAR KSPD 181456Z AUTO 32014KT 09/02 A2990 RMK AO1 SLP101 T00890022
53000





000
SAUS45 KPUB 181357
MTRSPD
METAR KSPD 181356Z AUTO 33012KT 07/03 A2990 RMK AO1 SLP105 T00670028





000
SAUS45 KPUB 181257
MTRSPD
METAR KSPD 181256Z AUTO 31010KT 04/02 A2990 RMK AO1 SLP100 T00390022





000
SAUS45 KPUB 181257
MTRSPD
METAR KSPD 181256Z AUTO 31010KT 04/02 A2990 RMK AO1 SLP100 T00390022





000
SAUS45 KPUB 181157
MTRSPD
METAR KSPD 181156Z AUTO 30009KT 02/01 A2990 RMK AO1 SLP099 70001
T00220006 10061 20011 58009





000
SAUS45 KPUB 181157
MTRSPD
METAR KSPD 181156Z AUTO 30009KT 02/01 A2990 RMK AO1 SLP099 70001
T00220006 10061 20011 58009





000
SAUS45 KPUB 181057
MTRSPD
METAR KSPD 181056Z AUTO 30010KT 02/01 A2991 RMK AO1 SLP099 T00220006





000
SAUS45 KPUB 181057
MTRSPD
METAR KSPD 181056Z AUTO 30010KT 02/01 A2991 RMK AO1 SLP099 T00220006





000
SAUS45 KPUB 180957
MTRSPD
METAR KSPD 180956Z AUTO 30008KT 04/01 A2993 RMK AO1 SLP102 T00390011





000
SAUS45 KPUB 180857
MTRSPD
METAR KSPD 180856Z AUTO 31010KT 04/03 A2993 RMK AO1 SLP102 T00440028
56014





000
SAUS45 KPUB 180757
MTRSPD
METAR KSPD 180756Z AUTO 30006KT 03/01 A2994 RMK AO1 SLP110 T00280011





000
SAUS45 KPUB 180757
MTRSPD
METAR KSPD 180756Z AUTO 30006KT 03/01 A2994 RMK AO1 SLP110 T00280011





000
SAUS45 KPUB 180657
MTRSPD
METAR KSPD 180656Z AUTO 31006KT 03/00 A2995 RMK AO1 SLP115 T00280000
401890011





000
SAUS45 KPUB 180558
MTRSPD
METAR KSPD 180556Z AUTO 33003KT 03/00 A2998 RMK AO1 SLP123 T00330000
10167 20011 53007





000
SAUS45 KPUB 180558
MTRSPD
METAR KSPD 180556Z AUTO 33003KT 03/00 A2998 RMK AO1 SLP123 T00330000
10167 20011 53007





000
SAUS45 KPUB 180457
MTRSPD
METAR KSPD 180456Z AUTO VRB06KT 02/M01 A2997 RMK AO1 SLP125
T00221006





000
SAUS45 KPUB 180357
MTRSPD
METAR KSPD 180356Z AUTO 32006KT 06/00 A2995 RMK AO1 SLP117 T00610000





000
SAUS45 KPUB 180257
MTRSPD
METAR KSPD 180256Z AUTO 29009KT 08/00 A2995 RMK AO1 WSHFT 0222
SLP117 T00830000 53017





000
SAUS45 KPUB 180243
MTRSPD
SPECI KSPD 180242Z AUTO 32012KT 09/M01 A2995 RMK AO1 WSHFT 0222
T00891006





000
SAUS45 KPUB 180157
MTRSPD
METAR KSPD 180156Z AUTO 19007KT 08/M03 A2992 RMK AO1 SLP105
T00831028





000
SAUS45 KPUB 180157
MTRSPD
METAR KSPD 180156Z AUTO 19007KT 08/M03 A2992 RMK AO1 SLP105
T00831028





000
SAUS45 KPUB 180057
MTRSPD
METAR KSPD 180056Z AUTO 18011KT 13/M08 A2990 RMK AO1 SLP094
T01331083





000
SAUS45 KPUB 172357
MTRSPD
METAR KSPD 172356Z AUTO 18014KT 17/M12 A2990 RMK AO1 PK WND
17026/2300 SLP088 T01671117 10189 20167 55003





000
SAUS45 KPUB 172357
MTRSPD
METAR KSPD 172356Z AUTO 18014KT 17/M12 A2990 RMK AO1 PK WND
17026/2300 SLP088 T01671117 10189 20167 55003





000
SAUS45 KPUB 172258
MTRSPD
METAR KSPD 172256Z AUTO 18014G21KT 18/M09 A2990 RMK AO1 PK WND
18027/2217 SLP087 T01781094





000
SAUS45 KPUB 172157
MTRSPD
METAR KSPD 172156Z AUTO 17015G21KT 18/M10 A2989 RMK AO1 SLP084
T01831100





000
SAUS45 KPUB 172157
MTRSPD
METAR KSPD 172156Z AUTO 17015G21KT 18/M10 A2989 RMK AO1 SLP084
T01831100





000
SAUS45 KPUB 172058
MTRSPD
METAR KSPD 172056Z AUTO 17016G21KT 18/M08 A2991 RMK AO1 SLP089
T01831083 56016





000
SAUS45 KPUB 172058
MTRSPD
METAR KSPD 172056Z AUTO 17016G21KT 18/M08 A2991 RMK AO1 SLP089
T01831083 56016





000
SAUS45 KPUB 171957
MTRSPD
METAR KSPD 171956Z AUTO 19015KT 18/M07 A2992 RMK AO1 SLP097
T01781072





000
SAUS45 KPUB 171957
MTRSPD
METAR KSPD 171956Z AUTO 19015KT 18/M07 A2992 RMK AO1 SLP097
T01781072





000
SAUS45 KPUB 171857
MTRSPD
METAR KSPD 171856Z AUTO 18016KT 17/M04 A2994 RMK AO1 SLP102
T01721044





000
SAUS45 KPUB 171857
MTRSPD
METAR KSPD 171856Z AUTO 18016KT 17/M04 A2994 RMK AO1 SLP102
T01721044





000
SAUS45 KPUB 171758
MTRSPD
METAR KSPD 171756Z AUTO 19018G22KT 17/01 A2996 RMK AO1 SLP110 60001
T01670011 10167 20089 58004





000
SAUS45 KPUB 171658
MTRSPD
METAR KSPD 171656Z AUTO 20010G15KT 15/07 A2997 RMK AO1 SLP116
T01500072





000
SAUS45 KPUB 171658
MTRSPD
METAR KSPD 171656Z AUTO 20010G15KT 15/07 A2997 RMK AO1 SLP116
T01500072





000
SAUS45 KPUB 171557
MTRSPD
METAR KSPD 171556Z AUTO 19013KT 13/08 A2997 RMK AO1 SLP120 T01280078





000
SAUS45 KPUB 171457
MTRSPD
METAR KSPD 171456Z AUTO 16013KT 11/08 A2998 RMK AO1 SLP122 60001
T01060078 50002





000
SAUS45 KPUB 171357
MTRSPD
METAR KSPD 171356Z AUTO 16012KT 09/09 A2998 RMK AO1 SLP129 T00890089





000
SAUS45 KPUB 171357
MTRSPD
METAR KSPD 171356Z AUTO 16012KT 09/09 A2998 RMK AO1 SLP129 T00890089





000
SAUS45 KPUB 171257
MTRSPD
METAR KSPD 171256Z AUTO 13014G17KT 09/09 A2997 RMK AO1 SLP123 P0001
T00890089





000
SAUS45 KPUB 171257
MTRSPD
METAR KSPD 171256Z AUTO 13014G17KT 09/09 A2997 RMK AO1 SLP123 P0001
T00890089





000
SAUS45 KPUB 171157
MTRSPD
METAR KSPD 171156Z AUTO 13006KT 09/09 A2997 RMK AO1 SLP115 70034
T00890089 10089 20061 56004





000
SAUS45 KPUB 171157
MTRSPD
METAR KSPD 171156Z AUTO 13006KT 09/09 A2997 RMK AO1 SLP115 70034
T00890089 10089 20061 56004





000
SAUS45 KPUB 171058
MTRSPD
METAR KSPD 171056Z AUTO 32005KT 08/08 A2997 RMK AO1 SLP113 T00780078





000
SAUS45 KPUB 170957
MTRSPD
METAR KSPD 170956Z AUTO 34006KT 08/08 A2994 RMK AO1 SLP103 T00780078





000
SAUS45 KPUB 170857
MTRSPD
METAR KSPD 170856Z AUTO 00000KT 08/08 A2998 RMK AO1 SLP119 T00780078
51004





000
SAUS45 KPUB 170857
MTRSPD
METAR KSPD 170856Z AUTO 00000KT 08/08 A2998 RMK AO1 SLP119 T00780078
51004





000
SAUS45 KPUB 170757
MTRSPD
METAR KSPD 170756Z AUTO 02004KT 07/07 A2998 RMK AO1 SLP118 T00720067





000
SAUS45 KPUB 170658
MTRSPD
METAR KSPD 170656Z AUTO 35007KT 09/09 A2999 RMK AO1 SLP123 T00890089
401830028





000
SAUS45 KPUB 170557
MTRSPD
METAR KSPD 170556Z AUTO 35008KT 08/08 A2997 RMK AO1 SLP120 60034
T00830078 10139 20078 58008





000
SAUS45 KPUB 170557
MTRSPD
METAR KSPD 170556Z AUTO 35008KT 08/08 A2997 RMK AO1 SLP120 60034
T00830078 10139 20078 58008





000
SAUS45 KPUB 170457
MTRSPD
METAR KSPD 170456Z AUTO VRB06KT 08/08 A2999 RMK AO1 PRESRR SLP133
T00830083





000
SAUS45 KPUB 170358
MTRSPD
METAR KSPD 170356Z AUTO 33007KT 08/08 A2999 RMK AO1 SLP136 T00830078





000
SAUS45 KPUB 170358
MTRSPD
METAR KSPD 170356Z AUTO 33007KT 08/08 A2999 RMK AO1 SLP136 T00830078





000
SAUS45 KPUB 170257
MTRSPD
METAR KSPD 170256Z AUTO 31005KT 09/08 A3000 RMK AO1 SLP137 60034
T00890078 53031





000
SAUS45 KPUB 170157
MTRSPD
METAR KSPD 170156Z AUTO 03013KT 08/07 A2991 RMK AO1 WSHFT 0127
SLP111 P0019 T00780072





000
SAUS45 KPUB 170157
MTRSPD
METAR KSPD 170156Z AUTO 03013KT 08/07 A2991 RMK AO1 WSHFT 0127
SLP111 P0019 T00780072





000
SAUS45 KPUB 170149
MTRSPD
SPECI KSPD 170147Z AUTO 03012KT 08/07 A2991 RMK AO1 WSHFT 0127 P0019
T00830072





000
SAUS45 KPUB 170058
MTRSPD
METAR KSPD 170056Z AUTO 28018G28KT 08/07 A2997 RMK AO1 PK WND
27042/0039 SLP135 P0015 T00830072





000
SAUS45 KPUB 170058
MTRSPD
METAR KSPD 170056Z AUTO 28018G28KT 08/07 A2997 RMK AO1 PK WND
27042/0039 SLP135 P0015 T00830072





000
SAUS45 KPUB 162358
MTRSPD
METAR KSPD 162356Z AUTO 32014G22KT 14/06 A2989 RMK AO1 WSHFT 2319
SLP097 T01440056 10183 20111 55010





000
SAUS45 KPUB 162358
MTRSPD
METAR KSPD 162356Z AUTO 32014G22KT 14/06 A2989 RMK AO1 WSHFT 2319
SLP097 T01440056 10183 20111 55010





000
SAUS45 KPUB 162340
MTRSPD
SPECI KSPD 162339Z AUTO 14017KT 17/05 A2988 RMK AO1 WSHFT 2319
T01670050





000
SAUS45 KPUB 162258
MTRSPD
METAR KSPD 162256Z AUTO 08010G17KT 18/07 A2988 RMK AO1 SLP087
T01780067





000
SAUS45 KPUB 162258
MTRSPD
METAR KSPD 162256Z AUTO 08010G17KT 18/07 A2988 RMK AO1 SLP087
T01780067





000
SAUS45 KPUB 162157
MTRSPD
METAR KSPD 162156Z AUTO 09006KT 17/06 A2990 RMK AO1 SLP091 T01720061





000
SAUS45 KPUB 162057
MTRSPD
METAR KSPD 162056Z AUTO 08006G17KT 16/06 A2993 RMK AO1 SLP100
T01610061 58016





000
SAUS45 KPUB 161957
MTRSPD
METAR KSPD 161956Z AUTO 07009KT 030V090 16/07 A2996 RMK AO1 SLP110
T01610072





000
SAUS45 KPUB 161957
MTRSPD
METAR KSPD 161956Z AUTO 07009KT 030V090 16/07 A2996 RMK AO1 SLP110
T01610072





000
SAUS45 KPUB 161857
MTRSPD
METAR KSPD 161856Z AUTO VRB06G15KT 14/07 A2998 RMK AO1 SLP117
T01390067





000
SAUS45 KPUB 161857
MTRSPD
METAR KSPD 161856Z AUTO VRB06G15KT 14/07 A2998 RMK AO1 SLP117
T01390067





000
SAUS45 KPUB 161757
MTRSPD
METAR KSPD 161756Z AUTO 01013KT 11/05 A2998 RMK AO1 SLP118 T01110050
10117 20028 50001





000
SAUS45 KPUB 161657
MTRSPD
METAR KSPD 161656Z AUTO 36016KT 09/04 A2999 RMK AO1 SLP122 T00940039





000
SAUS45 KPUB 161657
MTRSPD
METAR KSPD 161656Z AUTO 36016KT 09/04 A2999 RMK AO1 SLP122 T00940039





000
SAUS45 KPUB 161557
MTRSPD
METAR KSPD 161556Z AUTO 35011KT 07/02 A3002 RMK AO1 SLP137 T00720022





000
SAUS45 KPUB 161457
MTRSPD
METAR KSPD 161456Z AUTO 34019KT 07/01 A2997 RMK AO1 SLP124 T00670006
50010





000
SAUS45 KPUB 161357
MTRSPD
METAR KSPD 161356Z AUTO 32016G23KT 06/01 A2998 RMK AO1 PK WND
32027/1322 SLP127 T00560006





000
SAUS45 KPUB 161257
MTRSPD
METAR KSPD 161256Z AUTO 32015KT 04/00 A2995 RMK AO1 SLP109 T00390000





000
SAUS45 KPUB 161257
MTRSPD
METAR KSPD 161256Z AUTO 32015KT 04/00 A2995 RMK AO1 SLP109 T00390000





000
SAUS45 KPUB 161157
MTRSPD
METAR KSPD 161156Z AUTO 33011KT 03/00 A2994 RMK AO1 SLP103 T00280000
10122 20028 53009





000
SAUS45 KPUB 161157
MTRSPD
METAR KSPD 161156Z AUTO 33011KT 03/00 A2994 RMK AO1 SLP103 T00280000
10122 20028 53009





000
SAUS45 KPUB 161057
MTRSPD
METAR KSPD 161056Z AUTO 32011KT 04/01 A2992 RMK AO1 SLP092 T00390006





000
SAUS45 KPUB 161057
MTRSPD
METAR KSPD 161056Z AUTO 32011KT 04/01 A2992 RMK AO1 SLP092 T00390006





000
SAUS45 KPUB 160958
MTRSPD
METAR KSPD 160956Z AUTO 31013KT 04/01 A2992 RMK AO1 SLP088 T00440011





000
SAUS45 KPUB 160857
MTRSPD
METAR KSPD 160856Z AUTO 33018KT 07/02 A2991 RMK AO1 SLP083 T00670017
51021





000
SAUS45 KPUB 160857
MTRSPD
METAR KSPD 160856Z AUTO 33018KT 07/02 A2991 RMK AO1 SLP083 T00670017
51021





000
SAUS45 KPUB 160757
MTRSPD
METAR KSPD 160756Z AUTO 31008KT 09/00 A2989 RMK AO1 SLP073 T00890000





000
SAUS45 KPUB 160657
MTRSPD
METAR KSPD 160656Z AUTO 01009KT 11/M02 A2988 RMK AO1 WSHFT 0623
SLP067 T01111017 402610033





000
SAUS45 KPUB 160644
MTRSPD
SPECI KSPD 160643Z AUTO 01012G23KT 12/M03 A2987 RMK AO1 WSHFT 0623
T01221028





000
SAUS45 KPUB 160557
MTRSPD
METAR KSPD 160556Z AUTO 21003KT 12/M06 A2984 RMK AO1 SLP053
T01221061 10228 20089 51023





000
SAUS45 KPUB 160557
MTRSPD
METAR KSPD 160556Z AUTO 21003KT 12/M06 A2984 RMK AO1 SLP053
T01221061 10228 20089 51023





000
SAUS45 KPUB 160458
MTRSPD
METAR KSPD 160456Z AUTO 29010KT 14/M08 A2981 RMK AO1 SLP040
T01441078





000
SAUS45 KPUB 160358
MTRSPD
METAR KSPD 160356Z AUTO 22008KT 13/M08 A2980 RMK AO1 SLP042
T01331078





000
SAUS45 KPUB 160257
MTRSPD
METAR KSPD 160256Z AUTO 25008KT 12/M08 A2976 RMK AO1 SLP037
T01221083 53023





000
SAUS45 KPUB 160157
MTRSPD
METAR KSPD 160156Z AUTO 23006KT 13/M10 A2973 RMK AO1 SLP034
T01331100





000
SAUS45 KPUB 160057
MTRSPD
METAR KSPD 160056Z AUTO 22009KT 19/M09 A2970 RMK AO1 PK WND
19029/2359 SLP021 T01941094





000
SAUS45 KPUB 152357
MTRSPD
METAR KSPD 152356Z AUTO 20016G27KT 22/M10 A2969 RMK AO1 PK WND
20032/2304 SLP014 T02221100 10261 20217 55001





000
SAUS45 KPUB 152357
MTRSPD
METAR KSPD 152356Z AUTO 20016G27KT 22/M10 A2969 RMK AO1 PK WND
20032/2304 SLP014 T02221100 10261 20217 55001





000
SAUS45 KPUB 152258
MTRSPD
METAR KSPD 152256Z AUTO 20023G34KT 25/M08 A2967 RMK AO1 PK WND
19034/2254 SLP002 T02501083





000
SAUS45 KPUB 152258
MTRSPD
METAR KSPD 152256Z AUTO 20023G34KT 25/M08 A2967 RMK AO1 PK WND
19034/2254 SLP002 T02501083





000
SAUS45 KPUB 152157
MTRSPD
METAR KSPD 152156Z AUTO 20022G34KT 26/M07 A2967 RMK AO1 PK WND
18040/2129 SLP003 T02561072





000
SAUS45 KPUB 152057
MTRSPD
METAR KSPD 152056Z AUTO 20014KT 24/M06 A2969 RMK AO1 PK WND
22027/2039 SLP012 T02391061 56023





000
SAUS45 KPUB 151957
MTRSPD
METAR KSPD 151956Z AUTO 23016G24KT 25/M08 A2971 RMK AO1 PK WND
24026/1910 SLP016 T02501078





000
SAUS45 KPUB 151857
MTRSPD
METAR KSPD 151856Z AUTO 21017G23KT 24/M07 A2974 RMK AO1 PK WND
19029/1843 SLP023 T02441067





000
SAUS45 KPUB 151857
MTRSPD
METAR KSPD 151856Z AUTO 21017G23KT 24/M07 A2974 RMK AO1 PK WND
19029/1843 SLP023 T02441067





000
SAUS45 KPUB 151757
MTRSPD
METAR KSPD 151756Z AUTO 21011G23KT 23/M05 A2977 RMK AO1 SLP033
T02281050 10239 20033 58007





000
SAUS45 KPUB 151757
MTRSPD
METAR KSPD 151756Z AUTO 21011G23KT 23/M05 A2977 RMK AO1 SLP033
T02281050 10239 20033 58007





000
SAUS45 KPUB 151657
MTRSPD
METAR KSPD 151656Z AUTO 21015G22KT 22/M03 A2978 RMK AO1 SLP041
T02171033





    US Dept of Commerce
    National Oceanic and Atmospheric Administration
    National Weather Service
    1325 East West Highway
    Silver Spring, MD 20910
    Page Author: NWS Internet Services Team
Disclaimer
Information Quality
Credits
Glossary
Privacy Policy
Freedom of Information Act (FOIA)
About Us
Career Opportunities